Time;durP1;ratioP1;P1;durP2;ratioP2;P2;SDS_P1;SDS_P2;PMS_P1;PMS_P2;Temp;Humidity;BMP_temperature;BMP_pressure;BME280_temperature;BME280_humidity;BME280_pressure;Samples;Min_cycle;Max_cycle;Signal;HPM_P1;HPM_P2
2023/08/13 00:01:55;;;;;;;11.00;7.50;;;;;;;15.55;100.00;99449.70;109431;1252;71209;-71
2023/08/13 00:04:23;;;;;;;8.90;7.70;;;;;;;15.53;100.00;99447.97;109491;1252;60461;-71
2023/08/13 00:06:50;;;;;;;9.20;7.60;;;;;;;15.51;100.00;99445.77;109550;1252;58930;-71
2023/08/13 00:09:20;;;;;;;11.60;8.00;;;;;;;15.50;100.00;99444.20;109409;1253;73388;-70
2023/08/13 00:11:48;;;;;;;8.20;7.10;;;;;;;15.52;100.00;99441.89;109472;1252;67587;-71
2023/08/13 00:14:15;;;;;;;14.70;8.30;;;;;;;15.55;100.00;99441.78;109532;1252;72775;-70
2023/08/13 00:16:44;;;;;;;11.20;7.80;;;;;;;15.60;100.00;99436.48;109441;1252;58935;-71
2023/08/13 00:19:11;;;;;;;9.20;7.70;;;;;;;15.64;100.00;99438.39;109465;1253;58884;-71
2023/08/13 00:21:39;;;;;;;9.00;7.60;;;;;;;15.65;100.00;99440.64;109507;1252;73379;-70
2023/08/13 00:24:15;;;;;;;;;;;;;;;15.62;100.00;99443.29;109509;1252;66658;-70
2023/08/13 00:26:42;;;;;;;11.70;7.90;;;;;;;15.59;100.00;99441.34;109420;1252;72702;-70
2023/08/13 00:29:09;;;;;;;10.60;8.00;;;;;;;15.55;100.00;99444.34;109426;1255;62663;-69
2023/08/13 00:31:37;;;;;;;11.60;7.50;;;;;;;15.48;100.00;99444.16;109480;1252;60022;-70
2023/08/13 00:34:04;;;;;;;10.00;7.20;;;;;;;15.42;100.00;99441.64;109357;1253;73660;-70
2023/08/13 00:36:32;;;;;;;8.40;7.20;;;;;;;15.42;100.00;99439.33;109463;1252;66882;-70
2023/08/13 00:38:59;;;;;;;8.30;7.30;;;;;;;15.39;100.00;99441.17;109463;1253;72697;-70
2023/08/13 00:41:27;;;;;;;8.70;7.50;;;;;;;15.38;100.00;99440.48;109477;1252;58979;-71
2023/08/13 00:43:54;;;;;;;12.60;7.50;;;;;;;15.39;100.00;99442.99;109482;1252;59321;-70
2023/08/13 00:46:21;;;;;;;11.60;7.00;;;;;;;15.41;100.00;99443.37;109378;1253;73402;-70
2023/08/13 00:48:54;;;;;;;10.40;6.10;;;;;;;15.42;100.00;99440.14;109373;1252;66819;-71
2023/08/13 00:51:22;;;;;;;9.50;6.60;;;;;;;15.42;100.00;99441.65;109461;1252;72978;-70
2023/08/13 00:53:50;;;;;;;7.50;6.20;;;;;;;15.41;100.00;99442.38;109473;1252;61787;-70
2023/08/13 00:56:17;;;;;;;9.20;6.80;;;;;;;15.40;100.00;99437.84;109165;1252;59997;-72
2023/08/13 00:58:44;;;;;;;8.20;6.50;;;;;;;15.41;100.00;99441.98;109362;1253;73384;-71
2023/08/13 01:01:12;;;;;;;8.20;7.00;;;;;;;15.41;100.00;99434.58;109526;1252;65864;-72
2023/08/13 01:03:40;;;;;;;12.60;8.00;;;;;;;15.42;100.00;99432.16;109427;1252;72673;-70
2023/08/13 01:06:15;;;;;;;7.60;6.50;;;;;;;15.42;100.00;99436.11;109421;1252;60813;-71
2023/08/13 01:08:47;;;;;;;10.10;7.40;;;;;;;15.42;100.00;99433.61;109497;1252;58915;-71
2023/08/13 01:11:29;;;;;;;11.40;6.30;;;;;;;15.41;100.00;99434.37;109394;1251;161952;-69
2023/08/13 01:14:04;;;;;;;8.50;7.10;;;;;;;15.33;100.00;99435.41;109229;1253;67705;-69
2023/08/13 01:16:32;;;;;;;13.30;7.60;;;;;;;15.23;100.00;99433.70;109401;1252;72961;-70
2023/08/13 01:18:59;;;;;;;8.80;6.60;;;;;;;15.13;100.00;99436.97;109391;1252;60153;-71
2023/08/13 01:21:27;;;;;;;12.70;7.40;;;;;;;15.03;100.00;99437.95;109370;1252;58891;-71
2023/08/13 01:23:54;;;;;;;9.10;7.00;;;;;;;14.97;100.00;99437.63;109418;1252;75088;-71
2023/08/13 01:26:22;;;;;;;10.00;7.20;;;;;;;14.97;100.00;99434.29;109462;1252;67257;-71
2023/08/13 01:28:59;;;;;;;9.10;6.70;;;;;;;14.96;100.00;99433.02;109369;1253;71072;-71
2023/08/13 01:31:30;;;;;;;9.30;6.40;;;;;;;14.97;100.00;99432.14;109514;1253;60436;-70
2023/08/13 01:33:58;;;;;;;6.90;6.10;;;;;;;14.99;100.00;99430.80;109366;1252;61544;-70
2023/08/13 01:36:25;;;;;;;10.50;5.80;;;;;;;15.02;100.00;99432.67;109463;1252;74767;-70
2023/08/13 01:38:54;;;;;;;8.60;6.10;;;;;;;15.05;100.00;99433.73;109216;1253;66343;-70
2023/08/13 01:41:21;;;;;;;8.50;6.40;;;;;;;15.06;100.00;99431.98;109411;1253;72896;-69
2023/08/13 01:43:48;;;;;;;7.20;6.50;;;;;;;15.06;100.00;99432.02;109378;1253;59385;-70
2023/08/13 01:46:16;;;;;;;9.90;6.90;;;;;;;15.04;100.00;99435.55;109444;1252;60005;-70
2023/08/13 01:48:43;;;;;;;7.60;6.20;;;;;;;15.01;100.00;99436.99;109402;1252;72941;-70
2023/08/13 01:51:10;;;;;;;12.80;6.10;;;;;;;14.98;100.00;99440.77;109435;1252;67061;-70
2023/08/13 01:53:38;;;;;;;7.10;6.20;;;;;;;14.97;100.00;99441.92;109516;1252;72652;-70
2023/08/13 01:56:05;;;;;;;6.50;5.80;;;;;;;14.97;100.00;99444.31;109383;1252;60360;-70
2023/08/13 01:58:33;;;;;;;7.30;5.90;;;;;;;14.97;100.00;99445.95;109195;1253;58946;-71
2023/08/13 02:01:01;;;;;;;9.40;6.50;;;;;;;14.97;100.00;99448.64;109261;1253;73480;-71
2023/08/13 02:03:29;;;;;;;10.00;6.30;;;;;;;14.97;100.00;99445.75;109319;1252;69804;-70
2023/08/13 02:05:56;;;;;;;10.90;6.60;;;;;;;14.96;100.00;99445.02;109339;1252;72601;-70
2023/08/13 02:08:23;;;;;;;8.00;5.90;;;;;;;14.96;100.00;99442.46;109343;1253;60364;-70
2023/08/13 02:10:51;;;;;;;7.00;5.70;;;;;;;14.96;100.00;99448.39;109355;1252;59315;-70
2023/08/13 02:13:18;;;;;;;6.20;5.60;;;;;;;14.94;100.00;99446.16;109312;1252;75722;-70
2023/08/13 02:15:45;;;;;;;7.80;6.70;;;;;;;14.92;100.00;99448.66;109269;1253;66449;-70
2023/08/13 02:18:13;;;;;;;5.90;5.20;;;;;;;14.92;100.00;99450.55;109189;1252;72662;-71
2023/08/13 02:20:40;;;;;;;5.70;5.20;;;;;;;14.89;100.00;99451.94;109276;1252;60406;-70
2023/08/13 02:23:08;;;;;;;8.80;6.10;;;;;;;14.86;100.00;99454.31;109379;1252;59131;-71
2023/08/13 02:25:35;;;;;;;7.90;5.80;;;;;;;14.84;100.00;99454.84;109346;1253;74479;-70
2023/08/13 02:28:03;;;;;;;8.30;5.90;;;;;;;14.85;100.00;99457.65;109290;1253;67897;-69
2023/08/13 02:30:30;;;;;;;6.60;5.90;;;;;;;14.86;100.00;99454.69;109309;1252;73396;-71
2023/08/13 02:32:59;;;;;;;6.60;5.50;;;;;;;14.86;100.00;99457.48;109195;1253;60445;-71
2023/08/13 02:35:27;;;;;;;6.60;5.90;;;;;;;14.87;100.00;99458.84;109337;1252;59522;-71
2023/08/13 02:37:54;;;;;;;6.60;5.10;;;;;;;14.87;100.00;99462.59;109322;1252;73452;-70
2023/08/13 02:40:21;;;;;;;9.70;5.50;;;;;;;14.86;100.00;99464.70;109414;1252;69744;-71
2023/08/13 02:42:50;;;;;;;8.70;5.60;;;;;;;14.83;100.00;99466.94;109332;1253;72675;-71
2023/08/13 02:45:17;;;;;;;7.40;5.70;;;;;;;14.78;100.00;99468.68;109475;1252;60233;-70
2023/08/13 02:47:44;;;;;;;8.70;6.30;;;;;;;14.74;100.00;99470.15;109509;1251;58940;-70
2023/08/13 02:50:12;;;;;;;9.20;6.40;;;;;;;14.71;100.00;99475.28;109464;1252;74725;-70
2023/08/13 02:52:39;;;;;;;7.80;5.40;;;;;;;14.70;100.00;99474.73;109458;1252;67893;-71
2023/08/13 02:55:07;;;;;;;7.40;5.70;;;;;;;14.69;100.00;99474.86;109524;1252;72660;-70
2023/08/13 02:57:35;;;;;;;6.50;5.40;;;;;;;14.68;100.00;99476.82;109431;1252;61734;-71
2023/08/13 03:00:13;;;;;;;5.60;5.00;;;;;;;14.69;100.00;99477.94;109434;1252;60002;-70
2023/08/13 03:02:41;;;;;;;5.80;5.10;;;;;;;14.74;100.00;99479.17;109331;1252;74634;-71
2023/08/13 03:05:09;;;;;;;8.00;6.20;;;;;;;14.80;100.00;99478.80;109481;1252;67584;-71
2023/08/13 03:07:36;;;;;;;5.80;4.90;;;;;;;14.87;100.00;99476.02;109461;1252;72690;-71
2023/08/13 03:10:04;;;;;;;8.00;5.70;;;;;;;14.92;100.00;99483.06;109493;1252;59563;-71
2023/08/13 03:12:32;;;;;;;6.90;5.80;;;;;;;14.95;100.00;99485.92;109414;1254;60608;-70
2023/08/13 03:15:00;;;;;;;8.80;6.20;;;;;;;14.98;100.00;99484.54;109497;1253;73393;-70
2023/08/13 03:17:27;;;;;;;9.20;5.40;;;;;;;15.00;100.00;99489.79;109414;1252;67786;-71
2023/08/13 03:19:55;;;;;;;5.80;5.20;;;;;;;15.07;100.00;99491.80;109433;1253;71047;-70
2023/08/13 03:22:23;;;;;;;5.60;4.90;;;;;;;15.16;100.00;99495.52;109335;1252;60565;-71
2023/08/13 03:24:50;;;;;;;6.70;5.10;;;;;;;15.31;100.00;99491.45;109378;1252;59994;-71
2023/08/13 03:27:18;;;;;;;7.80;4.70;;;;;;;15.50;100.00;99491.84;109462;1252;73449;-70
2023/08/13 03:29:45;;;;;;;6.00;4.90;;;;;;;15.70;100.00;99489.13;109360;1252;66871;-71
2023/08/13 03:32:13;;;;;;;5.50;4.70;;;;;;;15.92;100.00;99482.78;109384;1252;72638;-70
2023/08/13 03:34:41;;;;;;;5.60;5.10;;;;;;;16.15;100.00;99481.73;109364;1253;58951;-72
2023/08/13 03:37:09;;;;;;;5.60;5.00;;;;;;;16.37;100.00;99479.38;109403;1253;59402;-72
2023/08/13 03:39:36;;;;;;;8.70;4.90;;;;;;;16.57;100.00;99478.77;109538;1252;74650;-71
2023/08/13 03:42:04;;;;;;;6.90;4.90;;;;;;;16.77;100.00;99479.80;109500;1251;66287;-71
2023/08/13 03:44:31;;;;;;;8.60;5.00;;;;;;;16.96;100.00;99478.40;109531;1253;72635;-69
2023/08/13 03:46:59;;;;;;;6.50;4.70;;;;;;;17.15;100.00;99474.70;109457;1253;60457;-71
2023/08/13 03:49:26;;;;;;;5.30;4.70;;;;;;;17.38;100.00;99476.80;109420;1252;60148;-71
2023/08/13 03:51:54;;;;;;;6.20;5.40;;;;;;;17.60;100.00;99473.32;109415;1253;74543;-69
2023/08/13 03:54:21;;;;;;;9.10;5.00;;;;;;;17.82;100.00;99471.53;109494;1252;67859;-70
2023/08/13 03:56:48;;;;;;;6.00;5.10;;;;;;;18.05;100.00;99472.99;109526;1253;72394;-71
2023/08/13 03:59:16;;;;;;;5.30;4.70;;;;;;;18.27;100.00;99473.32;109368;1252;60444;-70
2023/08/13 04:01:44;;;;;;;6.30;5.00;;;;;;;18.50;100.00;99472.06;109423;1252;60076;-71
2023/08/13 04:04:12;;;;;;;6.90;4.90;;;;;;;18.73;100.00;99473.02;109481;1252;74766;-70
2023/08/13 04:06:39;;;;;;;7.90;4.90;;;;;;;18.95;100.00;99466.64;109367;1252;66817;-71
2023/08/13 04:09:07;;;;;;;6.30;5.50;;;;;;;19.15;100.00;99464.63;109375;1252;72635;-71
2023/08/13 04:11:35;;;;;;;9.00;4.80;;;;;;;19.29;100.00;99466.23;109402;1253;59404;-70
2023/08/13 04:14:03;;;;;;;6.20;5.30;;;;;;;19.47;100.00;99465.74;109197;1252;60121;-71
2023/08/13 04:16:30;;;;;;;6.40;5.40;;;;;;;19.66;100.00;99459.30;109384;1253;75399;-70
2023/08/13 04:18:59;;;;;;;7.00;5.60;;;;;;;19.89;100.00;99455.80;109221;1253;67707;-72
2023/08/13 04:21:26;;;;;;;8.60;5.70;;;;;;;20.14;100.00;99451.64;109225;1252;71389;-70
2023/08/13 04:23:55;;;;;;;6.00;5.40;;;;;;;20.41;100.00;99449.84;109246;1251;60686;-71
2023/08/13 04:26:23;;;;;;;6.20;5.60;;;;;;;20.70;100.00;99452.94;109314;1253;60759;-71
2023/08/13 04:28:52;;;;;;;6.00;5.40;;;;;;;20.94;100.00;99454.23;109383;1252;74734;-70
2023/08/13 04:31:20;;;;;;;7.80;5.10;;;;;;;21.15;100.00;99454.91;109374;1252;69871;-71
2023/08/13 04:33:48;;;;;;;9.10;4.80;;;;;;;21.39;100.00;99454.23;109362;1253;72700;-70
2023/08/13 04:36:16;;;;;;;9.60;5.60;;;;;;;21.68;100.00;99450.02;109345;1252;58980;-70
2023/08/13 04:38:43;;;;;;;7.40;5.30;;;;;;;21.95;100.00;99451.74;109339;1252;58927;-70
2023/08/13 04:41:10;;;;;;;5.90;5.20;;;;;;;22.26;100.00;99447.64;109492;1252;73371;-70
2023/08/13 04:43:41;;;;;;;7.60;5.30;;;;;;;22.56;100.00;99447.48;109372;1253;67611;-71
2023/08/13 04:46:09;;;;;;;6.70;5.70;;;;;;;22.85;100.00;99451.88;109384;1251;75822;-71
2023/08/13 04:48:48;;;;;;;6.10;5.50;;;;;;;23.09;100.00;99448.52;109347;1252;60058;-70
2023/08/13 04:51:22;;;;;;;5.40;4.40;;;;;;;23.39;100.00;99448.10;109435;1252;58982;-70
2023/08/13 04:53:49;;;;;;;9.70;6.00;;;;;;;23.68;100.00;99448.27;109445;1252;74781;-70
2023/08/13 04:56:17;;;;;;;8.80;5.10;;;;;;;23.90;100.00;99448.98;109444;1252;67638;-71
2023/08/13 04:58:45;;;;;;;6.00;4.90;;;;;;;24.07;100.00;99453.44;109321;1253;72700;-72
2023/08/13 05:01:12;;;;;;;6.50;5.60;;;;;;;24.26;100.00;99452.38;109370;1252;60053;-72
2023/08/13 05:03:44;;;;;;;7.90;5.50;;;;;;;24.41;100.00;99455.21;109369;1252;60128;-71
2023/08/13 05:06:14;;;;;;;5.60;5.10;;;;;;;24.56;100.00;99454.73;109464;1253;72993;-72
2023/08/13 05:08:41;;;;;;;5.80;5.30;;;;;;;24.72;100.00;99458.04;109564;1252;68056;-70
2023/08/13 05:11:09;;;;;;;5.00;4.60;;;;;;;24.89;100.00;99455.13;109299;1253;72721;-70
2023/08/13 05:13:37;;;;;;;9.80;6.10;;;;;;;25.05;100.00;99455.53;109360;1253;60067;-70
2023/08/13 05:16:04;;;;;;;6.20;5.20;;;;;;;25.17;99.79;99447.98;109398;1252;59535;-70
2023/08/13 05:18:32;;;;;;;6.40;5.70;;;;;;;25.31;98.94;99452.77;109367;1253;77199;-71
2023/08/13 05:21:00;;;;;;;5.90;5.30;;;;;;;25.52;97.90;99447.04;109502;1252;66336;-71
2023/08/13 05:23:27;;;;;;;6.10;5.50;;;;;;;25.74;96.12;99444.15;109366;1253;71236;-71
2023/08/13 05:25:55;;;;;;;6.10;5.40;;;;;;;25.96;94.23;99434.09;109377;1252;58911;-71
2023/08/13 05:28:23;;;;;;;5.40;4.90;;;;;;;26.17;92.81;99433.20;109418;1252;58901;-71
2023/08/13 05:30:50;;;;;;;6.00;5.40;;;;;;;26.43;90.63;99429.55;109398;1257;74651;-71
2023/08/13 05:33:18;;;;;;;7.50;5.70;;;;;;;26.68;88.25;99429.63;109379;1251;67601;-71
2023/08/13 05:35:45;;;;;;;5.80;4.80;;;;;;;26.87;85.94;99432.88;109358;1252;71737;-71
2023/08/13 05:38:13;;;;;;;5.30;4.80;;;;;;;27.01;83.52;99435.30;109349;1253;60350;-71
2023/08/13 05:40:40;;;;;;;5.80;5.20;;;;;;;27.14;82.14;99434.77;109498;1252;60021;-71
2023/08/13 05:43:08;;;;;;;6.40;4.60;;;;;;;27.30;81.17;99429.98;109391;1253;74612;-71
2023/08/13 05:45:35;;;;;;;7.30;4.60;;;;;;;27.51;78.37;99430.08;109295;1252;67611;-71
2023/08/13 05:48:03;;;;;;;4.90;4.30;;;;;;;27.59;77.77;99427.62;109416;1252;72674;-71
2023/08/13 05:50:30;;;;;;;4.70;4.30;;;;;;;27.70;77.09;99433.67;109364;1253;59276;-71
2023/08/13 05:52:58;;;;;;;5.30;4.60;;;;;;;27.85;75.49;99433.41;109370;1252;58935;-70
2023/08/13 05:55:25;;;;;;;6.60;3.70;;;;;;;28.02;74.22;99432.92;109532;1252;73370;-72
2023/08/13 05:57:52;;;;;;;5.10;3.90;;;;;;;28.29;72.54;99434.42;109382;1252;67889;-69
2023/08/13 06:00:20;;;;;;;6.00;4.40;;;;;;;28.52;69.78;99435.02;109507;1253;72726;-70
2023/08/13 06:02:47;;;;;;;6.70;4.20;;;;;;;28.68;68.62;99432.38;109523;1252;60075;-70
2023/08/13 06:05:15;;;;;;;5.20;4.50;;;;;;;28.85;67.37;99434.02;109499;1253;59636;-70
2023/08/13 06:07:42;;;;;;;4.70;4.10;;;;;;;29.02;65.45;99435.61;109526;1252;73354;-70
2023/08/13 06:10:10;;;;;;;3.70;3.40;;;;;;;29.13;76.16;99440.58;109500;1252;66347;-70
2023/08/13 06:12:37;;;;;;;4.60;3.90;;;;;;;29.19;87.95;99442.71;109535;1256;72732;-71
2023/08/13 06:15:05;;;;;;;5.60;4.20;;;;;;;29.31;88.92;99446.58;109550;1252;58966;-70
2023/08/13 06:17:32;;;;;;;5.30;4.70;;;;;;;29.40;81.30;99450.02;109518;1256;61089;-70
2023/08/13 06:20:00;;;;;;;6.10;4.90;;;;;;;29.50;71.63;99447.42;109566;1253;74642;-70
2023/08/13 06:22:28;;;;;;;5.40;4.90;;;;;;;29.63;68.19;99448.56;109486;1252;66614;-69
2023/08/13 06:24:55;;;;;;;6.60;5.00;;;;;;;29.80;65.09;99449.70;109483;1252;73094;-71
2023/08/13 06:27:23;;;;;;;6.50;6.00;;;;;;;29.94;62.39;99447.69;109526;1252;60161;-70
2023/08/13 06:29:50;;;;;;;6.20;5.70;;;;;;;30.02;61.20;99447.96;109523;1252;59256;-70
2023/08/13 06:32:35;;;;;;;7.60;5.40;;;;;;;30.13;59.83;99448.87;109534;1252;74889;-71
2023/08/13 06:35:03;;;;;;;6.50;5.20;;;;;;;30.22;58.36;99444.95;109517;1252;69577;-71
2023/08/13 06:37:30;;;;;;;6.80;4.50;;;;;;;30.37;57.93;99447.78;109476;1253;71585;-70
2023/08/13 06:40:03;;;;;;;6.10;4.20;;;;;;;30.51;56.35;99443.86;109493;1253;60311;-70
2023/08/13 06:42:30;;;;;;;5.40;3.90;;;;;;;30.66;54.85;99451.66;109552;1252;58873;-70
2023/08/13 06:44:58;;;;;;;3.80;3.20;;;;;;;30.82;52.89;99450.16;109574;1252;74700;-70
2023/08/13 06:47:25;;;;;;;3.00;2.80;;;;;;;31.03;52.11;99454.86;109510;1253;68042;-71
2023/08/13 06:49:53;;;;;;;5.60;3.10;;;;;;;31.12;50.37;99452.81;109567;1251;73129;-70
2023/08/13 06:52:20;;;;;;;6.20;3.30;;;;;;;31.20;49.45;99453.73;109519;1252;60118;-71
2023/08/13 06:54:47;;;;;;;6.00;2.70;;;;;;;31.25;48.42;99452.15;109536;1251;59302;-71
2023/08/13 06:57:15;;;;;;;3.10;2.80;;;;;;;31.20;47.42;99452.92;109430;1251;74667;-70
2023/08/13 06:59:43;;;;;;;2.50;2.30;;;;;;;31.16;47.46;99457.16;109532;1252;67597;-72
2023/08/13 07:02:10;;;;;;;3.10;2.50;;;;;;;31.25;47.58;99455.13;109491;1253;72703;-70
2023/08/13 07:04:37;;;;;;;2.60;2.20;;;;;;;31.39;45.76;99460.05;109553;1252;58984;-73
2023/08/13 07:07:06;;;;;;;3.00;2.70;;;;;;;31.44;45.11;99459.34;109564;1252;60481;-72
2023/08/13 07:09:33;;;;;;;2.60;2.40;;;;;;;31.50;45.20;99452.73;109512;1253;74658;-71
2023/08/13 07:12:01;;;;;;;8.20;2.50;;;;;;;31.63;45.21;99455.98;109495;1253;67590;-74
2023/08/13 07:14:28;;;;;;;2.60;2.10;;;;;;;31.80;43.80;99452.25;109561;1252;71420;-73
2023/08/13 07:16:56;;;;;;;3.80;2.10;;;;;;;31.94;42.81;99455.45;109545;1252;60039;-72
2023/08/13 07:19:23;;;;;;;4.90;2.40;;;;;;;32.08;42.65;99452.82;109575;1252;60493;-74
2023/08/13 07:21:50;;;;;;;4.30;2.00;;;;;;;32.19;42.03;99456.78;109485;1252;73320;-71
2023/08/13 07:24:18;;;;;;;3.10;2.80;;;;;;;32.26;41.60;99454.53;109483;1252;65873;-72
2023/08/13 07:26:45;;;;;;;3.60;2.90;;;;;;;32.36;41.56;99455.00;109419;1257;73139;-72
2023/08/13 07:29:12;;;;;;;4.90;2.90;;;;;;;32.48;41.54;99458.48;109449;1253;60053;-72
2023/08/13 07:31:40;;;;;;;3.60;3.10;;;;;;;32.64;40.95;99459.63;109517;1252;59996;-70
2023/08/13 07:34:07;;;;;;;5.20;2.30;;;;;;;32.73;39.99;99463.63;109518;1251;74147;-75
2023/08/13 07:36:35;;;;;;;4.10;2.00;;;;;;;32.64;40.26;99464.26;109494;1253;67581;-74
2023/08/13 07:39:02;;;;;;;2.20;2.00;;;;;;;32.60;40.47;99464.19;109451;1253;72776;-73
2023/08/13 07:41:30;;;;;;;2.30;2.00;;;;;;;32.63;40.34;99462.90;109505;1252;58935;-73
2023/08/13 07:43:57;;;;;;;4.40;1.90;;;;;;;32.77;40.17;99460.38;109518;1252;60002;-76
2023/08/13 07:46:24;;;;;;;3.80;1.90;;;;;;;32.91;38.94;99457.25;109591;1251;73571;-73
2023/08/13 07:48:52;;;;;;;2.10;1.90;;;;;;;32.99;38.27;99454.79;109499;1252;66327;-72
2023/08/13 07:51:20;;;;;;;3.90;1.90;;;;;;;33.10;38.37;99455.27;109453;1253;72680;-73
2023/08/13 07:53:47;;;;;;;3.10;2.10;;;;;;;33.34;38.13;99454.25;109485;1251;59083;-71
2023/08/13 07:56:15;;;;;;;5.30;2.00;;;;;;;33.43;37.70;99455.90;109551;1253;58958;-70
2023/08/13 07:58:42;;;;;;;4.70;2.10;;;;;;;33.38;37.98;99455.71;109438;1252;74670;-71
2023/08/13 08:01:09;;;;;;;3.30;1.80;;;;;;;33.42;38.21;99454.55;109504;1253;68108;-72
2023/08/13 08:03:37;;;;;;;5.30;2.40;;;;;;;33.53;37.68;99454.02;109411;1253;71439;-72
2023/08/13 08:06:04;;;;;;;3.00;2.00;;;;;;;33.65;36.43;99453.50;109531;1253;59133;-69
2023/08/13 08:08:32;;;;;;;2.60;1.80;;;;;;;33.61;35.57;99456.16;109547;1252;60033;-71
2023/08/13 08:10:59;;;;;;;4.20;2.10;;;;;;;33.55;35.79;99455.23;109413;1253;74709;-72
2023/08/13 08:13:27;;;;;;;1.80;1.70;;;;;;;33.68;36.09;99455.13;109520;1252;67573;-73
2023/08/13 08:15:56;;;;;;;2.40;1.80;;;;;;;33.87;36.79;99451.55;109490;1253;71387;-69
2023/08/13 08:18:23;;;;;;;3.00;1.50;;;;;;;34.01;36.48;99452.45;109490;1253;59018;-68
2023/08/13 08:20:51;;;;;;;3.20;1.90;;;;;;;34.12;35.17;99453.98;109470;1253;59106;-72
2023/08/13 08:23:18;;;;;;;2.10;1.70;;;;;;;34.23;34.56;99456.14;109531;1253;74642;-71
2023/08/13 08:25:46;;;;;;;3.20;1.70;;;;;;;34.29;33.65;99454.06;109543;1253;68086;-72
2023/08/13 08:28:13;;;;;;;1.80;1.60;;;;;;;34.33;33.53;99454.05;109279;1253;72948;-73
2023/08/13 08:30:40;;;;;;;3.40;1.80;;;;;;;34.41;33.84;99451.51;109495;1253;59369;-72
2023/08/13 08:33:08;;;;;;;3.50;1.80;;;;;;;34.58;33.47;99456.08;109415;1252;59075;-72
2023/08/13 08:35:35;;;;;;;2.40;1.60;;;;;;;34.68;33.03;99452.63;109478;1253;73321;-73
2023/08/13 08:38:03;;;;;;;2.70;1.30;;;;;;;34.74;32.48;99448.95;109513;1252;67153;-70
2023/08/13 08:40:30;;;;;;;3.80;1.30;;;;;;;34.74;31.29;99447.67;109321;1253;71838;-73
2023/08/13 08:42:58;;;;;;;1.50;1.40;;;;;;;34.72;31.23;99447.65;109254;1253;60039;-72
2023/08/13 08:45:25;;;;;;;3.00;1.80;;;;;;;34.72;31.06;99453.60;109370;1253;60112;-72
2023/08/13 08:47:53;;;;;;;3.10;1.60;;;;;;;34.70;30.99;99450.98;109269;1252;75830;-75
2023/08/13 08:50:21;;;;;;;2.80;1.90;;;;;;;34.84;31.69;99452.13;109222;1252;66299;-75
2023/08/13 08:52:49;;;;;;;2.30;1.90;;;;;;;35.04;31.14;99454.64;109238;1254;71469;-78
2023/08/13 08:55:16;;;;;;;2.20;2.00;;;;;;;35.05;30.62;99458.79;109398;1252;58973;-75
2023/08/13 08:57:44;;;;;;;2.20;1.90;;;;;;;35.00;30.12;99455.73;109480;1252;60220;-77
2023/08/13 09:00:11;;;;;;;1.90;1.70;;;;;;;34.88;30.81;99453.70;109202;1253;74788;-74
2023/08/13 09:02:40;;;;;;;1.70;1.60;;;;;;;35.01;30.90;99448.14;109460;1253;66452;-75
2023/08/13 09:05:08;;;;;;;2.10;1.90;;;;;;;35.46;30.93;99444.22;109342;1253;71398;-80
2023/08/13 09:07:44;;;;;;;1.80;1.60;;;;;;;35.89;30.17;99443.87;109315;1253;59339;-78
2023/08/13 09:10:11;;;;;;;;;;;;;;;36.17;29.99;99440.91;109394;1252;59255;-79
2023/08/13 09:12:40;;;;;;;2.70;1.90;;;;;;;36.53;29.24;99447.28;109495;1253;73435;-79
2023/08/13 09:15:12;;;;;;;3.30;1.90;;;;;;;36.83;28.93;99447.00;109362;1253;67598;-79
2023/08/13 09:17:39;;;;;;;1.70;1.60;;;;;;;37.15;28.69;99443.96;109450;1253;72750;-77
2023/08/13 09:20:16;;;;;;;4.30;2.10;;;;;;;37.69;28.40;99444.29;109520;1252;58979;-75
2023/08/13 09:22:45;;;;;;;3.00;1.60;;;;;;;38.58;27.49;99439.36;109472;1252;60044;-79
2023/08/13 09:25:17;;;;;;;3.40;2.00;;;;;;;39.16;26.19;99439.77;109507;1253;74370;-78
2023/08/13 09:27:45;;;;;;;2.70;1.90;;;;;;;39.49;24.63;99441.36;109552;1252;66736;-75
2023/08/13 09:30:21;;;;;;;2.50;1.70;;;;;;;39.43;24.67;99440.90;109518;1252;72656;-74
2023/08/13 09:32:48;;;;;;;6.70;1.90;;;;;;;39.36;24.78;99438.68;109458;1253;60052;-77
2023/08/13 09:35:16;;;;;;;3.10;1.70;;;;;;;39.14;24.12;99441.30;109497;1253;60071;-76
2023/08/13 09:37:43;;;;;;;5.10;1.60;;;;;;;38.85;24.14;99442.31;109567;1253;74718;-75
2023/08/13 09:40:11;;;;;;;1.60;1.50;;;;;;;38.67;24.07;99438.88;109233;1253;66314;-73
2023/08/13 09:42:38;;;;;;;2.00;1.60;;;;;;;38.50;24.55;99444.39;109455;1254;73145;-76
2023/08/13 09:45:06;;;;;;;2.90;1.40;;;;;;;38.37;24.82;99439.42;109264;1253;61463;-74
2023/08/13 09:47:34;;;;;;;4.00;1.70;;;;;;;38.49;25.10;99437.86;109183;1253;61073;-76
2023/08/13 09:50:02;;;;;;;6.40;1.90;;;;;;;38.59;25.59;99433.27;109268;1253;73322;-73
2023/08/13 09:52:30;;;;;;;2.80;1.80;;;;;;;38.78;25.68;99442.28;109555;1253;68061;-73
2023/08/13 09:55:08;;;;;;;2.40;1.80;;;;;;;38.86;25.84;99443.55;109272;1254;72754;-74
2023/08/13 09:57:37;;;;;;;1.70;1.60;;;;;;;38.86;24.86;99437.18;109439;1253;59006;-71
2023/08/13 10:00:07;;;;;;;1.80;1.60;;;;;;;38.64;24.47;99436.49;109395;1253;59738;-71
2023/08/13 10:02:35;;;;;;;3.50;1.70;;;;;;;38.31;24.77;99433.83;109528;1254;73358;-72
2023/08/13 10:05:03;;;;;;;1.40;1.30;;;;;;;38.21;24.98;99430.05;109516;1254;67896;-75
2023/08/13 10:07:31;;;;;;;3.60;1.70;;;;;;;38.10;25.06;99427.98;109516;1253;72697;-72
2023/08/13 10:09:59;;;;;;;2.90;1.80;;;;;;;38.02;25.71;99429.27;109459;1253;60020;-69
2023/08/13 10:12:35;;;;;;;3.50;2.00;;;;;;;38.11;25.98;99429.84;109556;1252;59651;-70
2023/08/13 10:15:03;;;;;;;2.80;1.80;;;;;;;38.13;25.47;99429.41;109431;1254;74637;-71
2023/08/13 10:17:30;;;;;;;2.80;1.50;;;;;;;38.00;25.72;99430.95;109365;1253;66412;-72
2023/08/13 10:19:58;;;;;;;2.50;1.80;;;;;;;37.84;25.54;99429.92;108977;1260;72685;-73
2023/08/13 10:22:34;;;;;;;1.70;1.60;;;;;;;37.44;26.06;99434.94;108995;1260;60961;-73
2023/08/13 10:25:01;;;;;;;2.00;1.60;;;;;;;36.82;26.62;99437.90;109257;1253;60454;-73
2023/08/13 10:27:29;;;;;;;1.60;1.50;;;;;;;36.17;27.33;99444.04;109485;1253;74774;-70
2023/08/13 10:30:09;;;;;;;2.10;1.60;;;;;;;35.53;27.91;99441.34;109432;1253;66746;-75
2023/08/13 10:32:38;;;;;;;1.70;1.60;;;;;;;34.80;28.69;99435.59;109489;1253;72309;-73
2023/08/13 10:35:25;;;;;;;4.10;1.60;;;;;;;34.28;29.73;99439.17;109334;1254;60025;-72
2023/08/13 10:37:59;;;;;;;2.50;1.40;;;;;;;33.81;30.52;99447.02;109206;1253;58956;-71
2023/08/13 10:40:27;;;;;;;2.80;1.80;;;;;;;33.47;30.91;99445.92;109324;1254;74611;-70
2023/08/13 10:42:58;;;;;;;2.50;1.40;;;;;;;33.17;31.32;99446.12;109345;1252;66889;-71
2023/08/13 10:45:28;;;;;;;1.80;1.50;;;;;;;32.81;31.44;99445.13;109420;1253;73059;-75
2023/08/13 10:47:57;;;;;;;2.10;1.50;;;;;;;32.57;32.50;99446.98;109386;1254;60079;-69
2023/08/13 10:50:32;;;;;;;2.70;1.80;;;;;;;32.39;32.83;99452.02;109318;1257;60384;-69
2023/08/13 10:53:10;;;;;;;1.90;1.50;;;;;;;32.14;33.31;99452.73;109202;1252;74669;-70
2023/08/13 10:55:39;;;;;;;1.80;1.40;;;;;;;31.84;33.69;99447.08;109437;1252;67743;-71
2023/08/13 10:58:08;;;;;;;1.70;1.60;;;;;;;31.55;33.93;99446.16;109427;1254;71734;-73
2023/08/13 11:00:42;;;;;;;2.60;1.90;;;;;;;31.33;34.66;99441.60;109298;1254;58911;-73
2023/08/13 11:03:21;;;;;;;6.30;1.70;;;;;;;31.14;35.22;99439.56;109490;1253;59888;-72
2023/08/13 11:05:49;;;;;;;4.20;1.70;;;;;;;30.98;35.94;99439.06;109476;1253;73713;-71
2023/08/13 11:08:20;;;;;;;3.90;2.00;;;;;;;30.89;36.01;99436.76;109444;1253;66361;-74
2023/08/13 11:11:03;;;;;;;2.10;1.90;;;;;;;30.79;36.31;99439.56;109444;1254;72468;-73
2023/08/13 11:13:31;;;;;;;4.60;1.80;;;;;;;30.74;36.00;99440.99;109437;1253;60222;-73
2023/08/13 11:15:58;;;;;;;2.00;1.80;;;;;;;30.63;35.68;99439.23;109389;1254;60083;-73
2023/08/13 11:18:26;;;;;;;2.10;1.70;;;;;;;30.42;35.90;99436.19;109466;1254;73861;-73
2023/08/13 11:20:54;;;;;;;2.50;1.90;;;;;;;30.24;35.97;99434.98;109376;1252;66338;-72
2023/08/13 11:23:21;;;;;;;2.90;2.30;;;;;;;30.04;36.29;99436.30;109390;1252;72674;-70
2023/08/13 11:25:49;;;;;;;3.10;2.00;;;;;;;29.90;37.23;99438.50;109323;1257;60137;-70
2023/08/13 11:28:26;;;;;;;3.00;1.80;;;;;;;29.79;38.21;99435.90;109348;1254;58917;-71